sensor_id;sensor_type;location;lat;lon;timestamp;P1;durP1;ratioP1;P2;durP2;ratioP2
52608;SDS011;38503;48.544;12.142;2022-12-31T00:00:11;10.60;;;9.43;;
52608;SDS011;38503;48.544;12.142;2022-12-31T00:02:38;11.77;;;9.17;;
52608;SDS011;38503;48.544;12.142;2022-12-31T00:05:05;10.70;;;9.20;;
52608;SDS011;38503;48.544;12.142;2022-12-31T00:07:33;12.93;;;9.07;;
52608;SDS011;38503;48.544;12.142;2022-12-31T00:10:00;11.07;;;8.10;;
52608;SDS011;38503;48.544;12.142;2022-12-31T00:12:29;9.30;;;8.23;;
52608;SDS011;38503;48.544;12.142;2022-12-31T00:14:56;14.57;;;9.13;;
52608;SDS011;38503;48.544;12.142;2022-12-31T00:17:23;12.07;;;9.47;;
52608;SDS011;38503;48.544;12.142;2022-12-31T00:19:50;12.27;;;9.60;;
52608;SDS011;38503;48.544;12.142;2022-12-31T00:22:17;12.57;;;10.20;;
52608;SDS011;38503;48.544;12.142;2022-12-31T00:24:44;10.67;;;9.33;;
52608;SDS011;38503;48.544;12.142;2022-12-31T00:27:11;11.30;;;9.33;;
52608;SDS011;38503;48.544;12.142;2022-12-31T00:29:38;11.60;;;9.47;;
52608;SDS011;38503;48.544;12.142;2022-12-31T00:32:04;10.27;;;8.37;;
52608;SDS011;38503;48.544;12.142;2022-12-31T00:34:31;8.80;;;7.90;;
52608;SDS011;38503;48.544;12.142;2022-12-31T00:36:58;11.67;;;8.40;;
52608;SDS011;38503;48.544;12.142;2022-12-31T00:39:25;14.27;;;7.93;;
52608;SDS011;38503;48.544;12.142;2022-12-31T00:41:52;9.60;;;7.80;;
52608;SDS011;38503;48.544;12.142;2022-12-31T00:44:19;9.70;;;8.23;;
52608;SDS011;38503;48.544;12.142;2022-12-31T00:46:46;7.90;;;6.60;;
52608;SDS011;38503;48.544;12.142;2022-12-31T00:49:13;8.07;;;7.10;;
52608;SDS011;38503;48.544;12.142;2022-12-31T00:51:40;9.07;;;7.23;;
52608;SDS011;38503;48.544;12.142;2022-12-31T00:54:07;9.30;;;6.57;;
52608;SDS011;38503;48.544;12.142;2022-12-31T00:56:35;8.00;;;6.80;;
52608;SDS011;38503;48.544;12.142;2022-12-31T00:59:02;8.13;;;6.80;;
52608;SDS011;38503;48.544;12.142;2022-12-31T01:01:30;8.97;;;6.67;;
52608;SDS011;38503;48.544;12.142;2022-12-31T01:04:04;6.77;;;6.07;;
52608;SDS011;38503;48.544;12.142;2022-12-31T01:06:39;7.43;;;6.37;;
52608;SDS011;38503;48.544;12.142;2022-12-31T01:09:06;7.60;;;5.00;;
52608;SDS011;38503;48.544;12.142;2022-12-31T01:11:35;6.60;;;5.50;;
52608;SDS011;38503;48.544;12.142;2022-12-31T01:16:52;6.17;;;5.30;;
52608;SDS011;38503;48.544;12.142;2022-12-31T01:19:20;6.43;;;4.50;;
52608;SDS011;38503;48.544;12.142;2022-12-31T01:21:49;5.17;;;4.67;;
52608;SDS011;38503;48.544;12.142;2022-12-31T01:24:16;5.10;;;4.60;;
52608;SDS011;38503;48.544;12.142;2022-12-31T01:26:44;17.23;;;8.73;;
52608;SDS011;38503;48.544;12.142;2022-12-31T01:29:12;17.00;;;7.00;;
52608;SDS011;38503;48.544;12.142;2022-12-31T01:31:40;28.27;;;11.70;;
52608;SDS011;38503;48.544;12.142;2022-12-31T01:34:07;14.60;;;6.93;;
52608;SDS011;38503;48.544;12.142;2022-12-31T01:36:34;5.93;;;3.77;;
52608;SDS011;38503;48.544;12.142;2022-12-31T01:39:03;15.73;;;6.27;;
52608;SDS011;38503;48.544;12.142;2022-12-31T01:41:34;5.53;;;3.20;;
52608;SDS011;38503;48.544;12.142;2022-12-31T01:46:40;4.70;;;2.80;;
52608;SDS011;38503;48.544;12.142;2022-12-31T01:49:12;2.07;;;1.87;;
52608;SDS011;38503;48.544;12.142;2022-12-31T01:51:46;1.83;;;1.60;;
52608;SDS011;38503;48.544;12.142;2022-12-31T01:54:17;3.20;;;1.90;;
52608;SDS011;38503;48.544;12.142;2022-12-31T01:56:50;3.67;;;1.80;;
52608;SDS011;38503;48.544;12.142;2022-12-31T01:59:18;1.37;;;1.27;;
52608;SDS011;38503;48.544;12.142;2022-12-31T02:01:47;1.60;;;1.50;;
52608;SDS011;38503;48.544;12.142;2022-12-31T02:04:21;1.73;;;1.40;;
52608;SDS011;38503;48.544;12.142;2022-12-31T02:09:19;1.53;;;1.20;;
52608;SDS011;38503;48.544;12.142;2022-12-31T02:11:46;2.10;;;1.40;;
52608;SDS011;38503;48.544;12.142;2022-12-31T02:14:27;1.30;;;1.20;;
52608;SDS011;38503;48.544;12.142;2022-12-31T02:30:30;1.93;;;1.40;;
52608;SDS011;38503;48.544;12.142;2022-12-31T02:38:22;1.10;;;1.00;;
52608;SDS011;38503;48.544;12.142;2022-12-31T02:40:56;1.00;;;0.90;;
52608;SDS011;38503;48.544;12.142;2022-12-31T02:43:24;1.10;;;1.00;;
52608;SDS011;38503;48.544;12.142;2022-12-31T02:46:07;0.90;;;0.90;;
52608;SDS011;38503;48.544;12.142;2022-12-31T02:48:55;0.97;;;0.80;;
52608;SDS011;38503;48.544;12.142;2022-12-31T02:54:11;1.60;;;0.90;;
52608;SDS011;38503;48.544;12.142;2022-12-31T02:56:49;1.40;;;0.90;;
52608;SDS011;38503;48.544;12.142;2022-12-31T03:03:01;4.83;;;1.40;;
52608;SDS011;38503;48.544;12.142;2022-12-31T03:05:32;1.00;;;0.90;;
52608;SDS011;38503;48.544;12.142;2022-12-31T03:08:03;1.10;;;0.93;;
52608;SDS011;38503;48.544;12.142;2022-12-31T03:10:30;1.57;;;1.10;;
52608;SDS011;38503;48.544;12.142;2022-12-31T03:12:57;1.00;;;0.77;;
52608;SDS011;38503;48.544;12.142;2022-12-31T03:15:25;2.30;;;0.90;;
52608;SDS011;38503;48.544;12.142;2022-12-31T03:18:10;1.03;;;0.80;;
52608;SDS011;38503;48.544;12.142;2022-12-31T03:20:43;1.20;;;0.90;;
52608;SDS011;38503;48.544;12.142;2022-12-31T03:23:34;0.80;;;0.80;;
52608;SDS011;38503;48.544;12.142;2022-12-31T03:26:04;2.43;;;0.90;;
52608;SDS011;38503;48.544;12.142;2022-12-31T03:28:36;0.90;;;0.70;;
52608;SDS011;38503;48.544;12.142;2022-12-31T03:31:05;0.97;;;0.80;;
52608;SDS011;38503;48.544;12.142;2022-12-31T03:33:34;2.00;;;0.70;;
52608;SDS011;38503;48.544;12.142;2022-12-31T03:36:04;2.03;;;0.93;;
52608;SDS011;38503;48.544;12.142;2022-12-31T03:38:33;2.67;;;0.80;;
52608;SDS011;38503;48.544;12.142;2022-12-31T03:41:01;0.70;;;0.70;;
52608;SDS011;38503;48.544;12.142;2022-12-31T03:43:28;1.40;;;0.63;;
52608;SDS011;38503;48.544;12.142;2022-12-31T03:45:55;0.90;;;0.70;;
52608;SDS011;38503;48.544;12.142;2022-12-31T03:48:25;1.93;;;1.00;;
52608;SDS011;38503;48.544;12.142;2022-12-31T03:50:52;0.80;;;0.80;;
52608;SDS011;38503;48.544;12.142;2022-12-31T03:53:19;1.40;;;1.00;;
52608;SDS011;38503;48.544;12.142;2022-12-31T03:55:49;0.90;;;0.77;;
52608;SDS011;38503;48.544;12.142;2022-12-31T03:58:17;1.03;;;0.90;;
52608;SDS011;38503;48.544;12.142;2022-12-31T04:00:44;0.80;;;0.70;;
52608;SDS011;38503;48.544;12.142;2022-12-31T04:03:11;1.13;;;0.70;;
52608;SDS011;38503;48.544;12.142;2022-12-31T04:05:38;1.40;;;0.97;;
52608;SDS011;38503;48.544;12.142;2022-12-31T04:08:05;1.00;;;0.70;;
52608;SDS011;38503;48.544;12.142;2022-12-31T04:10:32;1.13;;;0.80;;
52608;SDS011;38503;48.544;12.142;2022-12-31T04:12:59;0.70;;;0.67;;
52608;SDS011;38503;48.544;12.142;2022-12-31T04:15:29;1.20;;;0.67;;
52608;SDS011;38503;48.544;12.142;2022-12-31T04:17:56;1.10;;;0.80;;
52608;SDS011;38503;48.544;12.142;2022-12-31T04:20:23;1.20;;;1.00;;
52608;SDS011;38503;48.544;12.142;2022-12-31T04:22:49;5.80;;;2.27;;
52608;SDS011;38503;48.544;12.142;2022-12-31T04:25:16;6.07;;;2.77;;
52608;SDS011;38503;48.544;12.142;2022-12-31T04:27:44;18.57;;;6.43;;
52608;SDS011;38503;48.544;12.142;2022-12-31T04:30:12;3.03;;;1.50;;
52608;SDS011;38503;48.544;12.142;2022-12-31T04:32:39;2.67;;;1.60;;
52608;SDS011;38503;48.544;12.142;2022-12-31T04:35:06;1.50;;;1.23;;
52608;SDS011;38503;48.544;12.142;2022-12-31T04:37:34;1.07;;;0.97;;
52608;SDS011;38503;48.544;12.142;2022-12-31T04:40:01;1.00;;;0.90;;
52608;SDS011;38503;48.544;12.142;2022-12-31T04:42:32;1.00;;;0.70;;
52608;SDS011;38503;48.544;12.142;2022-12-31T04:44:59;2.77;;;1.10;;
52608;SDS011;38503;48.544;12.142;2022-12-31T04:47:26;1.03;;;0.67;;
52608;SDS011;38503;48.544;12.142;2022-12-31T04:49:53;0.80;;;0.73;;
52608;SDS011;38503;48.544;12.142;2022-12-31T04:52:20;1.77;;;1.10;;
52608;SDS011;38503;48.544;12.142;2022-12-31T04:54:47;0.70;;;0.70;;
52608;SDS011;38503;48.544;12.142;2022-12-31T04:57:14;0.90;;;0.80;;
52608;SDS011;38503;48.544;12.142;2022-12-31T04:59:41;0.70;;;0.70;;
52608;SDS011;38503;48.544;12.142;2022-12-31T05:02:08;0.90;;;0.80;;
52608;SDS011;38503;48.544;12.142;2022-12-31T05:04:35;1.33;;;1.00;;
52608;SDS011;38503;48.544;12.142;2022-12-31T05:07:02;1.07;;;0.80;;
52608;SDS011;38503;48.544;12.142;2022-12-31T05:09:29;1.07;;;0.70;;
52608;SDS011;38503;48.544;12.142;2022-12-31T05:11:56;0.97;;;0.87;;
52608;SDS011;38503;48.544;12.142;2022-12-31T05:14:23;1.27;;;0.93;;
52608;SDS011;38503;48.544;12.142;2022-12-31T05:16:50;0.80;;;0.80;;
52608;SDS011;38503;48.544;12.142;2022-12-31T05:19:17;0.70;;;0.70;;
52608;SDS011;38503;48.544;12.142;2022-12-31T05:21:44;0.60;;;0.60;;
52608;SDS011;38503;48.544;12.142;2022-12-31T05:24:31;2.53;;;0.73;;
52608;SDS011;38503;48.544;12.142;2022-12-31T05:26:58;0.73;;;0.70;;
52608;SDS011;38503;48.544;12.142;2022-12-31T05:29:25;0.80;;;0.80;;
52608;SDS011;38503;48.544;12.142;2022-12-31T05:31:52;0.87;;;0.80;;
52608;SDS011;38503;48.544;12.142;2022-12-31T05:34:19;1.90;;;0.97;;
52608;SDS011;38503;48.544;12.142;2022-12-31T05:36:46;0.60;;;0.60;;
52608;SDS011;38503;48.544;12.142;2022-12-31T05:39:12;1.47;;;0.70;;
52608;SDS011;38503;48.544;12.142;2022-12-31T05:41:39;2.40;;;0.93;;
52608;SDS011;38503;48.544;12.142;2022-12-31T05:44:06;1.47;;;0.87;;
52608;SDS011;38503;48.544;12.142;2022-12-31T05:46:33;0.80;;;0.80;;
52608;SDS011;38503;48.544;12.142;2022-12-31T05:49:00;1.03;;;0.87;;
52608;SDS011;38503;48.544;12.142;2022-12-31T05:51:27;0.80;;;0.80;;
52608;SDS011;38503;48.544;12.142;2022-12-31T05:53:53;1.63;;;0.70;;
52608;SDS011;38503;48.544;12.142;2022-12-31T05:56:20;0.70;;;0.70;;
52608;SDS011;38503;48.544;12.142;2022-12-31T05:58:47;0.73;;;0.73;;
52608;SDS011;38503;48.544;12.142;2022-12-31T06:01:14;1.47;;;0.90;;
52608;SDS011;38503;48.544;12.142;2022-12-31T06:03:41;1.17;;;0.90;;
52608;SDS011;38503;48.544;12.142;2022-12-31T06:06:08;1.03;;;0.93;;
52608;SDS011;38503;48.544;12.142;2022-12-31T06:08:35;0.80;;;0.80;;
52608;SDS011;38503;48.544;12.142;2022-12-31T06:11:02;1.60;;;0.93;;
52608;SDS011;38503;48.544;12.142;2022-12-31T06:13:29;2.37;;;1.10;;
52608;SDS011;38503;48.544;12.142;2022-12-31T06:15:56;2.33;;;1.63;;
52608;SDS011;38503;48.544;12.142;2022-12-31T06:18:23;3.03;;;1.57;;
52608;SDS011;38503;48.544;12.142;2022-12-31T06:20:49;1.33;;;1.23;;
52608;SDS011;38503;48.544;12.142;2022-12-31T06:23:16;2.27;;;1.87;;
52608;SDS011;38503;48.544;12.142;2022-12-31T06:25:43;1.50;;;1.30;;
52608;SDS011;38503;48.544;12.142;2022-12-31T06:28:10;2.60;;;1.53;;
52608;SDS011;38503;48.544;12.142;2022-12-31T06:30:45;1.53;;;1.20;;
52608;SDS011;38503;48.544;12.142;2022-12-31T06:33:12;9.20;;;3.90;;
52608;SDS011;38503;48.544;12.142;2022-12-31T06:35:39;4.37;;;1.70;;
52608;SDS011;38503;48.544;12.142;2022-12-31T06:38:06;2.77;;;1.20;;
52608;SDS011;38503;48.544;12.142;2022-12-31T06:40:35;2.23;;;1.03;;
52608;SDS011;38503;48.544;12.142;2022-12-31T06:43:02;1.27;;;0.93;;
52608;SDS011;38503;48.544;12.142;2022-12-31T06:45:29;2.77;;;0.90;;
52608;SDS011;38503;48.544;12.142;2022-12-31T06:47:56;4.77;;;1.70;;
52608;SDS011;38503;48.544;12.142;2022-12-31T06:50:23;2.40;;;1.20;;
52608;SDS011;38503;48.544;12.142;2022-12-31T06:52:49;1.90;;;1.27;;
52608;SDS011;38503;48.544;12.142;2022-12-31T06:55:16;1.40;;;1.17;;
52608;SDS011;38503;48.544;12.142;2022-12-31T06:57:44;1.27;;;1.00;;
52608;SDS011;38503;48.544;12.142;2022-12-31T07:00:11;1.33;;;0.70;;
52608;SDS011;38503;48.544;12.142;2022-12-31T07:05:35;0.90;;;0.80;;
52608;SDS011;38503;48.544;12.142;2022-12-31T07:11:14;2.13;;;0.80;;
52608;SDS011;38503;48.544;12.142;2022-12-31T07:13:53;2.97;;;1.30;;
52608;SDS011;38503;48.544;12.142;2022-12-31T07:21:34;1.13;;;1.03;;
52608;SDS011;38503;48.544;12.142;2022-12-31T07:24:05;1.23;;;1.13;;
52608;SDS011;38503;48.544;12.142;2022-12-31T07:26:55;2.53;;;1.10;;
52608;SDS011;38503;48.544;12.142;2022-12-31T07:35:20;1.07;;;0.97;;
52608;SDS011;38503;48.544;12.142;2022-12-31T07:38:11;1.10;;;1.00;;
52608;SDS011;38503;48.544;12.142;2022-12-31T07:41:40;1.77;;;0.77;;
52608;SDS011;38503;48.544;12.142;2022-12-31T07:44:06;1.20;;;1.00;;
52608;SDS011;38503;48.544;12.142;2022-12-31T07:46:53;0.83;;;0.77;;
52608;SDS011;38503;48.544;12.142;2022-12-31T07:49:31;2.60;;;1.63;;
52608;SDS011;38503;48.544;12.142;2022-12-31T07:51:59;1.53;;;1.40;;
52608;SDS011;38503;48.544;12.142;2022-12-31T07:54:26;1.30;;;1.20;;
52608;SDS011;38503;48.544;12.142;2022-12-31T07:56:53;3.67;;;1.47;;
52608;SDS011;38503;48.544;12.142;2022-12-31T08:02:21;11.47;;;7.03;;
52608;SDS011;38503;48.544;12.142;2022-12-31T08:05:26;1.50;;;1.27;;
52608;SDS011;38503;48.544;12.142;2022-12-31T08:08:17;1.50;;;1.30;;
52608;SDS011;38503;48.544;12.142;2022-12-31T08:10:50;2.37;;;1.87;;
52608;SDS011;38503;48.544;12.142;2022-12-31T08:13:25;1.20;;;1.10;;
52608;SDS011;38503;48.544;12.142;2022-12-31T08:15:52;1.13;;;1.03;;
52608;SDS011;38503;48.544;12.142;2022-12-31T08:18:19;2.57;;;2.07;;
52608;SDS011;38503;48.544;12.142;2022-12-31T08:20:48;1.70;;;1.60;;
52608;SDS011;38503;48.544;12.142;2022-12-31T08:25:57;1.70;;;1.60;;
52608;SDS011;38503;48.544;12.142;2022-12-31T08:28:57;1.90;;;1.70;;
52608;SDS011;38503;48.544;12.142;2022-12-31T08:31:42;2.67;;;1.37;;
52608;SDS011;38503;48.544;12.142;2022-12-31T08:34:26;2.13;;;1.60;;
52608;SDS011;38503;48.544;12.142;2022-12-31T08:37:07;1.53;;;1.30;;
52608;SDS011;38503;48.544;12.142;2022-12-31T08:39:56;7.53;;;1.53;;
52608;SDS011;38503;48.544;12.142;2022-12-31T08:45:42;1.70;;;1.50;;
52608;SDS011;38503;48.544;12.142;2022-12-31T08:48:19;2.33;;;1.60;;
52608;SDS011;38503;48.544;12.142;2022-12-31T08:50:50;12.57;;;7.40;;
52608;SDS011;38503;48.544;12.142;2022-12-31T08:53:17;13.00;;;7.77;;
52608;SDS011;38503;48.544;12.142;2022-12-31T08:55:44;29.17;;;16.10;;
52608;SDS011;38503;48.544;12.142;2022-12-31T09:01:03;4.77;;;3.30;;
52608;SDS011;38503;48.544;12.142;2022-12-31T09:03:37;4.00;;;3.60;;
52608;SDS011;38503;48.544;12.142;2022-12-31T09:17:08;5.87;;;2.73;;
52608;SDS011;38503;48.544;12.142;2022-12-31T09:19:49;2.80;;;2.50;;
52608;SDS011;38503;48.544;12.142;2022-12-31T09:22:16;2.17;;;1.97;;
52608;SDS011;38503;48.544;12.142;2022-12-31T09:24:43;3.63;;;1.87;;
52608;SDS011;38503;48.544;12.142;2022-12-31T09:27:17;2.10;;;1.83;;
52608;SDS011;38503;48.544;12.142;2022-12-31T09:30:06;1.93;;;1.70;;
52608;SDS011;38503;48.544;12.142;2022-12-31T09:52:13;4.30;;;2.93;;
52608;SDS011;38503;48.544;12.142;2022-12-31T09:57:37;13.10;;;7.10;;
52608;SDS011;38503;48.544;12.142;2022-12-31T10:00:23;2.40;;;1.83;;
52608;SDS011;38503;48.544;12.142;2022-12-31T10:06:17;15.37;;;8.40;;
52608;SDS011;38503;48.544;12.142;2022-12-31T10:08:53;1.73;;;1.63;;
52608;SDS011;38503;48.544;12.142;2022-12-31T10:22:37;17.47;;;9.37;;
52608;SDS011;38503;48.544;12.142;2022-12-31T10:30:48;2.13;;;1.70;;
52608;SDS011;38503;48.544;12.142;2022-12-31T10:33:44;3.97;;;2.17;;
52608;SDS011;38503;48.544;12.142;2022-12-31T10:36:42;2.33;;;1.70;;
52608;SDS011;38503;48.544;12.142;2022-12-31T10:42:05;1.73;;;1.27;;
52608;SDS011;38503;48.544;12.142;2022-12-31T11:23:25;5.03;;;3.20;;
52608;SDS011;38503;48.544;12.142;2022-12-31T11:39:43;19.43;;;16.57;;
52608;SDS011;38503;48.544;12.142;2022-12-31T11:45:43;4.60;;;4.13;;
52608;SDS011;38503;48.544;12.142;2022-12-31T11:48:31;5.73;;;4.60;;
52608;SDS011;38503;48.544;12.142;2022-12-31T11:57:12;6.00;;;5.07;;
52608;SDS011;38503;48.544;12.142;2022-12-31T11:59:48;6.87;;;5.87;;
52608;SDS011;38503;48.544;12.142;2022-12-31T12:02:27;14.93;;;9.40;;
52608;SDS011;38503;48.544;12.142;2022-12-31T12:04:59;4.40;;;4.00;;
52608;SDS011;38503;48.544;12.142;2022-12-31T12:07:36;4.53;;;3.83;;
52608;SDS011;38503;48.544;12.142;2022-12-31T12:10:05;5.80;;;4.23;;
52608;SDS011;38503;48.544;12.142;2022-12-31T12:12:58;3.80;;;3.27;;
52608;SDS011;38503;48.544;12.142;2022-12-31T12:15:30;3.40;;;3.10;;
52608;SDS011;38503;48.544;12.142;2022-12-31T12:18:12;4.47;;;3.70;;
52608;SDS011;38503;48.544;12.142;2022-12-31T12:20:49;4.27;;;3.87;;
52608;SDS011;38503;48.544;12.142;2022-12-31T12:23:26;5.30;;;4.80;;
52608;SDS011;38503;48.544;12.142;2022-12-31T12:29:10;5.60;;;4.07;;
52608;SDS011;38503;48.544;12.142;2022-12-31T12:34:26;7.57;;;4.00;;
52608;SDS011;38503;48.544;12.142;2022-12-31T12:36:55;3.80;;;2.70;;
52608;SDS011;38503;48.544;12.142;2022-12-31T12:39:24;2.80;;;2.60;;
52608;SDS011;38503;48.544;12.142;2022-12-31T12:42:09;2.90;;;2.47;;
52608;SDS011;38503;48.544;12.142;2022-12-31T12:44:39;3.47;;;2.70;;
52608;SDS011;38503;48.544;12.142;2022-12-31T12:47:07;4.93;;;3.23;;
52608;SDS011;38503;48.544;12.142;2022-12-31T12:49:46;4.33;;;2.73;;
52608;SDS011;38503;48.544;12.142;2022-12-31T12:52:29;3.80;;;2.80;;
52608;SDS011;38503;48.544;12.142;2022-12-31T13:06:42;2.40;;;2.20;;
52608;SDS011;38503;48.544;12.142;2022-12-31T13:22:46;3.27;;;2.20;;
52608;SDS011;38503;48.544;12.142;2022-12-31T13:25:25;2.90;;;1.90;;
52608;SDS011;38503;48.544;12.142;2022-12-31T13:28:01;2.27;;;2.07;;
52608;SDS011;38503;48.544;12.142;2022-12-31T13:30:46;2.83;;;2.20;;
52608;SDS011;38503;48.544;12.142;2022-12-31T13:33:24;4.00;;;2.87;;
52608;SDS011;38503;48.544;12.142;2022-12-31T13:36:02;3.53;;;2.83;;
52608;SDS011;38503;48.544;12.142;2022-12-31T13:38:33;25.80;;;15.67;;
52608;SDS011;38503;48.544;12.142;2022-12-31T13:41:06;4.80;;;3.43;;
52608;SDS011;38503;48.544;12.142;2022-12-31T13:49:31;5.73;;;3.40;;
52608;SDS011;38503;48.544;12.142;2022-12-31T13:51:58;3.73;;;3.40;;
52608;SDS011;38503;48.544;12.142;2022-12-31T13:54:37;4.70;;;4.00;;
52608;SDS011;38503;48.544;12.142;2022-12-31T13:57:11;4.60;;;2.87;;
52608;SDS011;38503;48.544;12.142;2022-12-31T13:59:50;3.00;;;2.70;;
52608;SDS011;38503;48.544;12.142;2022-12-31T14:05:55;2.83;;;2.40;;
52608;SDS011;38503;48.544;12.142;2022-12-31T14:07:58;3.47;;;2.67;;
52608;SDS011;38503;48.544;12.142;2022-12-31T14:13:11;3.30;;;2.80;;
52608;SDS011;38503;48.544;12.142;2022-12-31T14:15:46;4.23;;;2.53;;
52608;SDS011;38503;48.544;12.142;2022-12-31T14:18:26;3.53;;;3.13;;
52608;SDS011;38503;48.544;12.142;2022-12-31T14:21:22;3.23;;;2.83;;
52608;SDS011;38503;48.544;12.142;2022-12-31T14:26:49;4.00;;;3.37;;
52608;SDS011;38503;48.544;12.142;2022-12-31T14:29:31;3.43;;;3.13;;
52608;SDS011;38503;48.544;12.142;2022-12-31T14:46:36;4.47;;;3.43;;
52608;SDS011;38503;48.544;12.142;2022-12-31T14:49:37;14.03;;;4.93;;
52608;SDS011;38503;48.544;12.142;2022-12-31T14:54:58;6.70;;;3.53;;
52608;SDS011;38503;48.544;12.142;2022-12-31T14:57:46;7.77;;;4.60;;
52608;SDS011;38503;48.544;12.142;2022-12-31T15:00:38;5.10;;;3.93;;
52608;SDS011;38503;48.544;12.142;2022-12-31T15:08:56;7.60;;;4.30;;
52608;SDS011;38503;48.544;12.142;2022-12-31T15:20:10;5.53;;;4.00;;
52608;SDS011;38503;48.544;12.142;2022-12-31T15:22:53;6.53;;;5.83;;
52608;SDS011;38503;48.544;12.142;2022-12-31T15:25:26;6.00;;;5.07;;
52608;SDS011;38503;48.544;12.142;2022-12-31T15:28:04;7.43;;;5.10;;
52608;SDS011;38503;48.544;12.142;2022-12-31T15:30:38;23.47;;;12.13;;
52608;SDS011;38503;48.544;12.142;2022-12-31T15:33:22;6.50;;;5.60;;
52608;SDS011;38503;48.544;12.142;2022-12-31T15:36:12;13.27;;;10.80;;
52608;SDS011;38503;48.544;12.142;2022-12-31T15:38:42;12.53;;;10.47;;
52608;SDS011;38503;48.544;12.142;2022-12-31T15:41:13;11.40;;;8.23;;
52608;SDS011;38503;48.544;12.142;2022-12-31T15:46:15;11.73;;;8.07;;
52608;SDS011;38503;48.544;12.142;2022-12-31T15:48:51;11.50;;;7.27;;
52608;SDS011;38503;48.544;12.142;2022-12-31T15:52:10;9.60;;;6.60;;
52608;SDS011;38503;48.544;12.142;2022-12-31T15:57:03;10.47;;;8.07;;
52608;SDS011;38503;48.544;12.142;2022-12-31T15:59:34;11.30;;;8.23;;
52608;SDS011;38503;48.544;12.142;2022-12-31T16:02:03;9.90;;;8.60;;
52608;SDS011;38503;48.544;12.142;2022-12-31T16:04:41;13.17;;;9.50;;
52608;SDS011;38503;48.544;12.142;2022-12-31T16:07:09;11.60;;;9.57;;
52608;SDS011;38503;48.544;12.142;2022-12-31T16:09:37;12.43;;;9.40;;
52608;SDS011;38503;48.544;12.142;2022-12-31T16:12:08;11.67;;;9.47;;
52608;SDS011;38503;48.544;12.142;2022-12-31T16:14:44;14.63;;;10.73;;
52608;SDS011;38503;48.544;12.142;2022-12-31T16:17:22;18.03;;;13.33;;
52608;SDS011;38503;48.544;12.142;2022-12-31T16:20:21;15.00;;;11.23;;
52608;SDS011;38503;48.544;12.142;2022-12-31T16:22:52;16.30;;;12.87;;
52608;SDS011;38503;48.544;12.142;2022-12-31T16:25:24;17.47;;;13.70;;
52608;SDS011;38503;48.544;12.142;2022-12-31T16:27:57;18.60;;;14.37;;
52608;SDS011;38503;48.544;12.142;2022-12-31T16:30:29;23.20;;;16.53;;
52608;SDS011;38503;48.544;12.142;2022-12-31T16:32:59;17.83;;;13.97;;
52608;SDS011;38503;48.544;12.142;2022-12-31T16:35:30;15.73;;;13.63;;
52608;SDS011;38503;48.544;12.142;2022-12-31T16:38:17;17.30;;;14.73;;
52608;SDS011;38503;48.544;12.142;2022-12-31T16:41:06;23.43;;;17.97;;
52608;SDS011;38503;48.544;12.142;2022-12-31T16:43:37;23.87;;;17.03;;
52608;SDS011;38503;48.544;12.142;2022-12-31T16:46:07;23.13;;;17.93;;
52608;SDS011;38503;48.544;12.142;2022-12-31T16:48:55;21.50;;;17.33;;
52608;SDS011;38503;48.544;12.142;2022-12-31T16:51:28;22.30;;;16.50;;
52608;SDS011;38503;48.544;12.142;2022-12-31T16:53:58;25.20;;;17.97;;
52608;SDS011;38503;48.544;12.142;2022-12-31T16:56:31;25.80;;;19.83;;
52608;SDS011;38503;48.544;12.142;2022-12-31T16:59:03;29.93;;;21.93;;
52608;SDS011;38503;48.544;12.142;2022-12-31T17:02:00;24.03;;;19.37;;
52608;SDS011;38503;48.544;12.142;2022-12-31T17:04:35;32.90;;;25.57;;
52608;SDS011;38503;48.544;12.142;2022-12-31T17:12:35;24.20;;;19.97;;
52608;SDS011;38503;48.544;12.142;2022-12-31T17:15:29;44.87;;;29.63;;
52608;SDS011;38503;48.544;12.142;2022-12-31T17:18:04;39.67;;;30.17;;
52608;SDS011;38503;48.544;12.142;2022-12-31T17:20:32;34.77;;;29.33;;
52608;SDS011;38503;48.544;12.142;2022-12-31T17:23:01;28.80;;;23.50;;
52608;SDS011;38503;48.544;12.142;2022-12-31T17:25:31;24.67;;;19.93;;
52608;SDS011;38503;48.544;12.142;2022-12-31T17:28:02;65.73;;;36.73;;
52608;SDS011;38503;48.544;12.142;2022-12-31T17:35:44;33.57;;;25.27;;
52608;SDS011;38503;48.544;12.142;2022-12-31T17:38:33;44.77;;;29.93;;
52608;SDS011;38503;48.544;12.142;2022-12-31T17:43:31;29.97;;;23.70;;
52608;SDS011;38503;48.544;12.142;2022-12-31T17:46:00;31.83;;;23.33;;
52608;SDS011;38503;48.544;12.142;2022-12-31T17:48:28;27.10;;;21.73;;
52608;SDS011;38503;48.544;12.142;2022-12-31T17:50:58;27.47;;;22.53;;
52608;SDS011;38503;48.544;12.142;2022-12-31T17:53:26;32.30;;;24.17;;
52608;SDS011;38503;48.544;12.142;2022-12-31T17:55:56;29.57;;;22.77;;
52608;SDS011;38503;48.544;12.142;2022-12-31T17:58:31;42.73;;;28.03;;
52608;SDS011;38503;48.544;12.142;2022-12-31T18:01:19;32.80;;;24.67;;
52608;SDS011;38503;48.544;12.142;2022-12-31T18:03:47;30.60;;;24.47;;
52608;SDS011;38503;48.544;12.142;2022-12-31T18:06:15;32.43;;;24.77;;
52608;SDS011;38503;48.544;12.142;2022-12-31T18:08:44;34.53;;;27.00;;
52608;SDS011;38503;48.544;12.142;2022-12-31T18:11:16;60.33;;;39.23;;
52608;SDS011;38503;48.544;12.142;2022-12-31T18:13:47;39.87;;;29.67;;
52608;SDS011;38503;48.544;12.142;2022-12-31T18:16:14;39.40;;;29.50;;
52608;SDS011;38503;48.544;12.142;2022-12-31T18:18:42;35.40;;;28.10;;
52608;SDS011;38503;48.544;12.142;2022-12-31T18:21:32;43.97;;;33.10;;
52608;SDS011;38503;48.544;12.142;2022-12-31T18:24:00;75.40;;;52.97;;
52608;SDS011;38503;48.544;12.142;2022-12-31T18:26:27;58.40;;;42.70;;
52608;SDS011;38503;48.544;12.142;2022-12-31T18:28:59;40.37;;;32.20;;
52608;SDS011;38503;48.544;12.142;2022-12-31T18:31:35;44.63;;;31.50;;
52608;SDS011;38503;48.544;12.142;2022-12-31T18:34:02;40.80;;;32.13;;
52608;SDS011;38503;48.544;12.142;2022-12-31T18:36:29;45.50;;;31.77;;
52608;SDS011;38503;48.544;12.142;2022-12-31T18:38:56;21.53;;;15.77;;
52608;SDS011;38503;48.544;12.142;2022-12-31T18:41:23;28.03;;;21.53;;
52608;SDS011;38503;48.544;12.142;2022-12-31T18:43:53;43.70;;;33.80;;
52608;SDS011;38503;48.544;12.142;2022-12-31T18:46:23;42.10;;;32.33;;
52608;SDS011;38503;48.544;12.142;2022-12-31T18:48:50;51.10;;;36.67;;
52608;SDS011;38503;48.544;12.142;2022-12-31T18:51:21;58.80;;;42.70;;
52608;SDS011;38503;48.544;12.142;2022-12-31T18:53:57;52.23;;;40.37;;
52608;SDS011;38503;48.544;12.142;2022-12-31T18:56:28;42.80;;;35.50;;
52608;SDS011;38503;48.544;12.142;2022-12-31T18:58:55;50.10;;;36.47;;
52608;SDS011;38503;48.544;12.142;2022-12-31T19:04:00;57.07;;;44.53;;
52608;SDS011;38503;48.544;12.142;2022-12-31T19:06:52;97.67;;;72.57;;
52608;SDS011;38503;48.544;12.142;2022-12-31T19:09:19;53.83;;;42.87;;
52608;SDS011;38503;48.544;12.142;2022-12-31T19:12:08;66.90;;;50.17;;
52608;SDS011;38503;48.544;12.142;2022-12-31T19:14:37;61.53;;;46.63;;
52608;SDS011;38503;48.544;12.142;2022-12-31T19:17:04;63.67;;;47.00;;
52608;SDS011;38503;48.544;12.142;2022-12-31T19:19:30;80.33;;;70.03;;
52608;SDS011;38503;48.544;12.142;2022-12-31T19:21:57;78.83;;;61.50;;
52608;SDS011;38503;48.544;12.142;2022-12-31T19:24:24;85.07;;;64.73;;
52608;SDS011;38503;48.544;12.142;2022-12-31T19:26:52;80.87;;;62.47;;
52608;SDS011;38503;48.544;12.142;2022-12-31T19:29:21;82.03;;;64.47;;
52608;SDS011;38503;48.544;12.142;2022-12-31T19:31:49;82.17;;;61.43;;
52608;SDS011;38503;48.544;12.142;2022-12-31T19:34:17;88.73;;;64.67;;